createdAt,value
2024-03-14T00:01:09.908Z,12.48
2024-03-14T00:03:38.310Z,11.23
2024-03-14T00:06:05.110Z,11.68
2024-03-14T00:08:31.685Z,12.50
2024-03-14T00:10:58.192Z,12.35
2024-03-14T00:13:25.859Z,11.45
2024-03-14T00:15:52.406Z,12.07
2024-03-14T00:18:19.923Z,11.50
2024-03-14T00:20:46.526Z,12.23
2024-03-14T00:23:13.257Z,12.90
2024-03-14T00:25:41.816Z,13.55
2024-03-14T00:28:11.180Z,12.50
2024-03-14T00:30:37.773Z,12.70
2024-03-14T00:33:05.578Z,12.05
2024-03-14T00:35:32.275Z,12.90
2024-03-14T00:37:59.517Z,11.95
2024-03-14T00:40:26.708Z,12.15
2024-03-14T00:42:53.658Z,12.00
2024-03-14T00:45:20.488Z,12.88
2024-03-14T00:47:47.430Z,12.27
2024-03-14T00:50:14.357Z,11.88
2024-03-14T00:52:41.278Z,11.38
2024-03-14T00:55:10.205Z,12.75
2024-03-14T00:57:38.093Z,12.37
2024-03-14T01:00:14.839Z,11.48
2024-03-14T01:02:42.646Z,11.05
2024-03-14T01:05:10.094Z,11.05
2024-03-14T01:07:36.658Z,12.30
2024-03-14T01:10:06.017Z,11.38
2024-03-14T01:12:32.887Z,12.27
2024-03-14T01:14:59.656Z,12.13
2024-03-14T01:17:26.134Z,13.05
2024-03-14T01:20:12.849Z,12.88
2024-03-14T01:22:39.342Z,13.23
2024-03-14T01:25:07.028Z,13.45
2024-03-14T01:27:33.755Z,12.52
2024-03-14T01:30:00.616Z,12.98
2024-03-14T01:32:27.248Z,13.38
2024-03-14T01:34:54.012Z,12.07
2024-03-14T01:37:23.139Z,12.68
2024-03-14T01:39:51.478Z,12.65
2024-03-14T01:42:18.265Z,13.00
2024-03-14T01:44:54.133Z,13.02
2024-03-14T01:47:22.859Z,12.75
2024-03-14T01:49:51.638Z,12.80
2024-03-14T01:52:21.232Z,13.10
2024-03-14T01:54:50.925Z,12.65
2024-03-14T01:57:18.617Z,12.43
2024-03-14T01:59:50.996Z,13.00
2024-03-14T02:02:18.915Z,12.88
2024-03-14T02:04:48.779Z,14.02
2024-03-14T02:07:18.977Z,12.98
2024-03-14T02:09:48.511Z,13.65
2024-03-14T02:12:15.210Z,13.40
2024-03-14T02:14:42.180Z,13.50
2024-03-14T02:17:08.940Z,13.40
2024-03-14T02:19:35.422Z,13.50
2024-03-14T02:22:02.474Z,14.57
2024-03-14T02:24:29.236Z,14.68
2024-03-14T02:27:00.610Z,13.15
2024-03-14T02:29:27.610Z,14.00
2024-03-14T02:31:54.056Z,14.00
2024-03-14T02:34:20.757Z,13.77
2024-03-14T02:36:47.532Z,14.27
2024-03-14T02:39:17.273Z,13.90
2024-03-14T02:41:43.802Z,14.15
2024-03-14T02:44:17.878Z,15.20
2024-03-14T02:46:54.549Z,14.60
2024-03-14T02:49:21.972Z,13.35
2024-03-14T02:51:48.639Z,14.55
2024-03-14T02:54:16.710Z,14.57
2024-03-14T02:56:51.596Z,13.82
2024-03-14T02:59:18.668Z,14.00
2024-03-14T03:01:45.292Z,14.30
2024-03-14T03:04:12.424Z,13.23
2024-03-14T03:06:59.265Z,14.65
2024-03-14T03:09:28.812Z,13.05
2024-03-14T03:11:55.501Z,14.35
2024-03-14T03:14:22.804Z,13.98
2024-03-14T03:16:49.337Z,14.30
2024-03-14T03:19:16.125Z,13.88
2024-03-14T03:21:42.652Z,13.70
2024-03-14T03:24:09.506Z,12.75
2024-03-14T03:26:36.589Z,13.32
2024-03-14T03:29:03.221Z,15.52
2024-03-14T03:31:30.379Z,14.70
2024-03-14T03:33:57.843Z,14.68
2024-03-14T03:36:24.676Z,14.30
2024-03-14T03:38:51.384Z,13.65
2024-03-14T03:41:17.964Z,14.23
2024-03-14T03:43:47.346Z,14.48
2024-03-14T03:46:13.829Z,14.75
2024-03-14T03:48:40.459Z,15.27
2024-03-14T03:51:07.099Z,14.07
2024-03-14T03:53:33.741Z,14.15
2024-03-14T03:56:06.597Z,13.75
2024-03-14T03:58:34.240Z,13.88
2024-03-14T04:01:08.376Z,13.85
2024-03-14T04:03:37.687Z,13.65
2024-03-14T04:06:04.425Z,13.07
2024-03-14T04:08:31.924Z,13.23
2024-03-14T04:10:58.465Z,13.93
2024-03-14T04:13:25.052Z,13.02
2024-03-14T04:15:51.641Z,13.52
2024-03-14T04:18:18.237Z,13.57
2024-03-14T04:20:44.953Z,13.75
2024-03-14T04:23:11.666Z,13.60
2024-03-14T04:25:38.599Z,13.20
2024-03-14T04:28:08.595Z,12.68
2024-03-14T04:30:35.203Z,13.35
2024-03-14T04:33:01.898Z,13.18
2024-03-14T04:35:28.502Z,13.45
2024-03-14T04:37:55.115Z,13.23
2024-03-14T04:40:22.608Z,13.43
2024-03-14T04:42:55.727Z,14.27
2024-03-14T04:45:23.241Z,14.13
2024-03-14T04:47:50.220Z,14.02
2024-03-14T04:50:20.199Z,15.52
2024-03-14T04:52:47.087Z,14.05
2024-03-14T04:55:14.040Z,13.85
2024-03-14T04:57:44.981Z,13.57
2024-03-14T05:00:21.296Z,13.62
2024-03-14T05:02:52.594Z,14.18
2024-03-14T05:05:22.085Z,13.95
2024-03-14T05:07:49.615Z,14.02
2024-03-14T05:10:20.081Z,14.48
2024-03-14T05:12:47.424Z,14.25
2024-03-14T05:15:15.496Z,13.82
2024-03-14T05:17:43.407Z,14.75
2024-03-14T05:20:11.931Z,14.50
2024-03-14T05:22:39.589Z,13.50
2024-03-14T05:25:07.950Z,14.87
2024-03-14T05:30:05.140Z,15.57
2024-03-14T05:32:33.382Z,15.32
2024-03-14T05:35:01.669Z,13.38
2024-03-14T05:37:28.892Z,15.20
2024-03-14T05:39:56.242Z,15.18
2024-03-14T05:42:23.348Z,15.30
2024-03-14T05:44:50.607Z,15.65
2024-03-14T05:47:17.253Z,16.00
2024-03-14T05:49:43.873Z,16.83
2024-03-14T05:52:11.508Z,16.25
2024-03-14T05:54:38.562Z,16.05
2024-03-14T05:57:05.269Z,15.85
2024-03-14T05:59:32.109Z,16.08
2024-03-14T06:01:59.077Z,16.23
2024-03-14T06:04:25.622Z,16.80
2024-03-14T06:06:52.089Z,16.87
2024-03-14T06:09:19.019Z,16.62
2024-03-14T06:11:45.720Z,16.17
2024-03-14T06:14:12.272Z,15.82
2024-03-14T06:16:38.786Z,16.35
2024-03-14T06:19:07.610Z,15.27
2024-03-14T06:21:41.404Z,15.13
2024-03-14T06:24:07.960Z,14.90
2024-03-14T06:26:38.192Z,15.40
2024-03-14T06:29:04.665Z,17.40
2024-03-14T06:31:31.117Z,16.87
2024-03-14T06:33:57.690Z,17.08
2024-03-14T06:36:25.257Z,16.27
2024-03-14T06:38:52.503Z,15.98
2024-03-14T06:41:20.345Z,15.00
2024-03-14T06:43:47.010Z,13.05
2024-03-14T06:46:16.713Z,13.32
2024-03-14T06:48:43.512Z,13.00
2024-03-14T06:51:11.698Z,12.70
2024-03-14T06:53:39.675Z,11.98
2024-03-14T06:56:10.033Z,12.50
2024-03-14T06:58:36.780Z,12.07
2024-03-14T07:01:03.355Z,11.88
2024-03-14T07:03:29.926Z,10.95
2024-03-14T07:05:59.165Z,11.30
2024-03-14T07:08:27.804Z,10.55
2024-03-14T07:10:54.646Z,10.68
2024-03-14T07:13:21.240Z,11.70
2024-03-14T07:15:49.124Z,10.70
2024-03-14T07:18:17.752Z,10.13
2024-03-14T07:20:47.064Z,10.63
2024-03-14T07:23:14.713Z,9.45
2024-03-14T07:25:42.453Z,10.25
2024-03-14T07:28:10.634Z,10.48
2024-03-14T07:30:37.243Z,10.43
2024-03-14T07:33:03.964Z,11.57
2024-03-14T07:35:30.476Z,10.45
2024-03-14T07:37:57.312Z,11.23
2024-03-14T07:40:33.959Z,11.27
2024-03-14T07:43:00.886Z,10.80
2024-03-14T07:45:27.835Z,11.32
2024-03-14T07:48:19.185Z,9.70
2024-03-14T07:50:52.264Z,9.73
2024-03-14T07:53:20.446Z,9.75
2024-03-14T07:55:47.204Z,10.00
2024-03-14T07:58:13.680Z,11.07
2024-03-14T08:00:40.202Z,10.85
2024-03-14T08:03:06.700Z,10.32
2024-03-14T08:05:35.416Z,10.48
2024-03-14T08:08:13.904Z,10.32
2024-03-14T08:10:48.009Z,10.55
2024-03-14T08:13:21.520Z,10.45
2024-03-14T08:18:22.855Z,10.25
2024-03-14T08:20:49.594Z,10.32
2024-03-14T08:23:16.836Z,10.10
2024-03-14T08:25:43.762Z,9.98
2024-03-14T08:28:10.268Z,10.60
2024-03-14T08:30:38.820Z,10.15
2024-03-14T08:33:05.999Z,9.32
2024-03-14T08:35:34.536Z,10.27
2024-03-14T08:38:01.254Z,10.27
2024-03-14T08:40:28.118Z,11.07
2024-03-14T08:42:54.630Z,9.93
2024-03-14T08:45:21.538Z,9.10
2024-03-14T08:47:48.727Z,10.27
2024-03-14T08:50:16.773Z,10.45
2024-03-14T08:52:43.848Z,9.70
2024-03-14T08:55:26.657Z,9.60
2024-03-14T08:57:53.581Z,10.00
2024-03-14T09:00:23.322Z,10.15
2024-03-14T09:02:50.918Z,10.00
2024-03-14T09:05:17.935Z,11.52
2024-03-14T09:07:47.077Z,10.35
2024-03-14T09:10:29.526Z,11.10
2024-03-14T09:12:56.760Z,10.63
2024-03-14T09:15:25.566Z,10.25
2024-03-14T09:17:52.950Z,9.32
2024-03-14T09:20:22.624Z,10.20
2024-03-14T09:22:56.778Z,10.95
2024-03-14T09:25:25.155Z,11.48
2024-03-14T09:27:54.617Z,12.27
2024-03-14T09:30:23.455Z,11.35
2024-03-14T09:32:51.778Z,11.40
2024-03-14T09:35:26.814Z,11.75
2024-03-14T09:37:57.309Z,11.35
2024-03-14T09:40:40.011Z,11.10
2024-03-14T09:43:15.112Z,10.80
2024-03-14T09:45:43.670Z,10.32
2024-03-14T09:48:13.219Z,11.20
2024-03-14T09:50:40.010Z,10.10
2024-03-14T09:53:08.455Z,10.68
2024-03-14T09:55:37.041Z,10.38
2024-03-14T09:58:06.144Z,11.48
2024-03-14T10:00:32.990Z,9.98
2024-03-14T10:03:02.221Z,10.05
2024-03-14T10:05:29.734Z,9.10
2024-03-14T10:07:56.397Z,10.02
2024-03-14T10:10:24.442Z,10.27
2024-03-14T10:12:58.564Z,9.98
2024-03-14T10:15:26.835Z,10.50
2024-03-14T10:17:53.916Z,12.15
2024-03-14T10:20:21.729Z,10.65
2024-03-14T10:22:50.279Z,11.05
2024-03-14T10:25:18.634Z,9.98
2024-03-14T10:28:00.411Z,10.15
2024-03-14T10:30:35.215Z,9.65
2024-03-14T10:33:04.851Z,9.48
2024-03-14T10:35:33.898Z,10.23
2024-03-14T10:38:01.930Z,9.48
2024-03-14T10:40:31.819Z,9.80
2024-03-14T10:42:58.564Z,8.70
2024-03-14T10:45:28.530Z,8.73
2024-03-14T10:47:56.737Z,8.68
2024-03-14T10:50:23.852Z,9.45
2024-03-14T10:52:56.364Z,9.13
2024-03-14T10:55:46.703Z,8.95
2024-03-14T10:58:17.261Z,8.57
2024-03-14T11:00:45.475Z,9.95
2024-03-14T11:03:18.955Z,9.20
2024-03-14T11:05:52.990Z,9.25
2024-03-14T11:08:24.448Z,8.02
2024-03-14T11:10:56.481Z,8.55
2024-03-14T11:13:31.825Z,7.85
2024-03-14T11:16:00.402Z,7.37
2024-03-14T11:18:38.621Z,8.38
2024-03-14T11:21:07.541Z,8.45
2024-03-14T11:23:37.845Z,6.37
2024-03-14T11:26:13.796Z,6.25
2024-03-14T11:28:42.827Z,6.85
2024-03-14T11:31:09.383Z,7.93
2024-03-14T11:33:36.345Z,7.60
2024-03-14T11:36:05.656Z,7.82
2024-03-14T11:38:34.080Z,10.05
2024-03-14T11:41:04.680Z,9.75
2024-03-14T11:43:35.022Z,8.32
2024-03-14T11:46:24.641Z,4.82
2024-03-14T11:48:51.157Z,5.22
2024-03-14T11:51:20.179Z,5.30
2024-03-14T11:53:47.663Z,4.90
2024-03-14T11:56:15.265Z,6.10
2024-03-14T11:58:45.421Z,5.87
2024-03-14T12:01:21.603Z,5.32
2024-03-14T12:03:53.002Z,5.45
2024-03-14T12:06:19.869Z,6.10
2024-03-14T12:08:48.886Z,5.40
2024-03-14T12:11:15.839Z,5.05
2024-03-14T12:13:53.442Z,5.70
2024-03-14T12:16:20.659Z,6.05
2024-03-14T12:18:53.645Z,5.68
2024-03-14T12:21:20.754Z,5.57
2024-03-14T12:23:52.020Z,5.40
2024-03-14T12:26:19.466Z,5.68
2024-03-14T12:28:49.352Z,6.32
2024-03-14T12:31:18.770Z,6.53
2024-03-14T12:33:48.369Z,5.97
2024-03-14T12:36:18.873Z,5.80
2024-03-14T12:38:52.767Z,6.37
2024-03-14T12:41:19.986Z,5.60
2024-03-14T12:43:48.584Z,5.85
2024-03-14T12:46:18.834Z,5.70
2024-03-14T12:48:46.981Z,5.20
2024-03-14T12:51:18.305Z,5.72
2024-03-14T12:53:57.470Z,5.97
2024-03-14T12:56:25.729Z,6.82
2024-03-14T12:58:53.807Z,6.07
2024-03-14T13:01:20.525Z,6.35
2024-03-14T13:03:47.526Z,6.22
2024-03-14T13:06:24.927Z,6.18
2024-03-14T13:09:26.397Z,7.05
2024-03-14T13:12:23.466Z,5.80
2024-03-14T13:15:12.232Z,5.97
2024-03-14T13:17:39.782Z,6.15
2024-03-14T13:20:19.501Z,5.53
2024-03-14T13:22:49.286Z,6.30
2024-03-14T13:25:15.808Z,6.32
2024-03-14T13:27:42.381Z,6.28
2024-03-14T13:30:09.768Z,5.82
2024-03-14T13:32:38.510Z,6.45
2024-03-14T13:35:11.170Z,6.93
2024-03-14T13:37:37.830Z,5.80
2024-03-14T13:42:42.982Z,5.75
2024-03-14T13:45:09.674Z,5.97
2024-03-14T13:47:39.134Z,5.80
2024-03-14T13:50:10.833Z,6.62
2024-03-14T13:52:42.479Z,6.55
2024-03-14T13:55:26.288Z,6.50
2024-03-14T13:57:56.199Z,5.65
2024-03-14T14:00:30.781Z,6.53
2024-03-14T14:03:00.249Z,5.68
2024-03-14T14:05:26.798Z,6.35
2024-03-14T14:07:56.676Z,6.40
2024-03-14T14:10:24.146Z,6.10
2024-03-14T14:12:52.016Z,5.85
2024-03-14T14:15:19.429Z,6.25
2024-03-14T14:17:46.328Z,6.37
2024-03-14T14:20:18.402Z,6.45
2024-03-14T14:22:46.415Z,5.65
2024-03-14T14:25:15.965Z,6.35
2024-03-14T14:27:46.166Z,5.62
2024-03-14T14:30:22.703Z,5.82
2024-03-14T14:32:50.604Z,6.68
2024-03-14T14:35:17.545Z,7.72
2024-03-14T14:37:50.517Z,7.50
2024-03-14T14:40:17.551Z,7.07
2024-03-14T14:42:44.422Z,7.30
2024-03-14T14:45:11.766Z,7.57
2024-03-14T14:47:43.087Z,7.53
2024-03-14T14:50:11.232Z,8.30
2024-03-14T14:52:39.010Z,8.25
2024-03-14T14:55:12.975Z,7.82
2024-03-14T14:57:45.112Z,8.02
2024-03-14T15:00:15.389Z,8.45
2024-03-14T15:02:48.640Z,7.95
2024-03-14T15:05:15.524Z,8.10
2024-03-14T15:07:42.664Z,11.90
2024-03-14T15:10:11.780Z,7.68
2024-03-14T15:12:46.767Z,7.95
2024-03-14T15:15:23.900Z,7.95
2024-03-14T15:17:51.355Z,7.28
2024-03-14T15:20:22.189Z,7.32
2024-03-14T15:22:50.153Z,7.15
2024-03-14T15:25:18.092Z,7.37
2024-03-14T15:27:46.179Z,7.28
2024-03-14T15:30:13.713Z,7.25
2024-03-14T15:32:43.533Z,6.62
2024-03-14T15:35:12.518Z,6.07
2024-03-14T15:37:40.121Z,6.20
2024-03-14T15:40:16.795Z,5.93
2024-03-14T15:42:44.804Z,6.15
2024-03-14T15:45:18.312Z,6.15
2024-03-14T15:47:49.697Z,6.20
2024-03-14T15:50:17.821Z,6.18
2024-03-14T15:52:45.755Z,5.90
2024-03-14T15:55:14.198Z,5.62
2024-03-14T15:57:40.896Z,5.97
2024-03-14T16:00:09.672Z,5.90
2024-03-14T16:02:40.042Z,5.93
2024-03-14T16:05:11.465Z,5.60
2024-03-14T16:07:38.133Z,5.75
2024-03-14T16:10:16.856Z,5.97
2024-03-14T16:12:44.316Z,5.47
2024-03-14T16:15:13.700Z,5.82
2024-03-14T16:17:41.034Z,4.97
2024-03-14T16:20:35.074Z,5.75
2024-03-14T16:23:04.630Z,5.60
2024-03-14T16:25:36.163Z,5.22
2024-03-14T16:28:04.568Z,4.80
2024-03-14T16:30:32.148Z,6.25
2024-03-14T16:32:58.955Z,5.40
2024-03-14T16:35:33.870Z,5.20
2024-03-14T16:38:02.964Z,5.65
2024-03-14T16:40:31.084Z,5.53
2024-03-14T16:42:59.762Z,4.82
2024-03-14T16:45:36.052Z,4.97
2024-03-14T16:48:03.842Z,5.20
2024-03-14T16:50:31.872Z,4.82
2024-03-14T16:52:59.174Z,4.78
2024-03-14T16:55:27.478Z,4.68
2024-03-14T16:57:55.270Z,4.93
2024-03-14T17:00:31.835Z,5.05
2024-03-14T17:02:59.658Z,5.35
2024-03-14T17:05:26.452Z,5.20
2024-03-14T17:07:57.164Z,5.72
2024-03-14T17:10:24.788Z,6.18
2024-03-14T17:12:52.490Z,6.95
2024-03-14T17:15:19.715Z,10.30
2024-03-14T17:17:46.788Z,9.93
2024-03-14T17:20:13.995Z,16.90
2024-03-14T17:22:41.125Z,15.75
2024-03-14T17:25:08.504Z,12.98
2024-03-14T17:27:36.035Z,8.90
2024-03-14T17:30:07.311Z,10.55
2024-03-14T17:32:34.732Z,9.82
2024-03-14T17:35:02.306Z,11.30
2024-03-14T17:37:28.815Z,9.38
2024-03-14T17:39:55.641Z,11.93
2024-03-14T17:42:22.149Z,11.18
2024-03-14T17:44:48.659Z,14.52
2024-03-14T17:47:15.122Z,11.65
2024-03-14T17:49:41.714Z,14.75
2024-03-14T17:52:09.500Z,12.48
2024-03-14T17:54:36.144Z,12.75
2024-03-14T17:57:04.054Z,15.48
2024-03-14T17:59:30.627Z,13.82
2024-03-14T18:01:57.642Z,13.30
2024-03-14T18:04:24.202Z,18.17
2024-03-14T18:06:50.765Z,23.45
2024-03-14T18:09:19.005Z,13.80
2024-03-14T18:11:46.490Z,16.33
2024-03-14T18:14:14.625Z,15.00
2024-03-14T18:16:42.483Z,18.35
2024-03-14T18:19:10.314Z,27.05
2024-03-14T18:21:40.207Z,29.37
2024-03-14T18:24:08.333Z,19.08
2024-03-14T18:26:38.329Z,21.77
2024-03-14T18:29:07.320Z,20.48
2024-03-14T18:31:47.866Z,17.80
2024-03-14T18:34:33.511Z,18.58
2024-03-14T18:37:00.482Z,16.58
2024-03-14T18:39:33.234Z,15.80
2024-03-14T18:42:05.959Z,16.70
2024-03-14T18:44:34.012Z,17.05
2024-03-14T18:47:00.696Z,17.48
2024-03-14T18:49:27.321Z,16.08
2024-03-14T18:51:54.999Z,16.30
2024-03-14T18:54:22.104Z,16.23
2024-03-14T18:56:50.996Z,15.95
2024-03-14T18:59:18.836Z,16.17
2024-03-14T19:01:45.433Z,16.33
2024-03-14T19:04:13.543Z,16.87
2024-03-14T19:06:40.094Z,15.20
2024-03-14T19:09:07.224Z,14.73
2024-03-14T19:11:34.084Z,16.27
2024-03-14T19:14:01.382Z,14.20
2024-03-14T19:16:28.026Z,10.30
2024-03-14T19:18:56.270Z,10.07
2024-03-14T19:21:22.955Z,10.52
2024-03-14T19:23:49.646Z,10.27
2024-03-14T19:26:18.171Z,10.98
2024-03-14T19:28:44.670Z,12.20
2024-03-14T19:31:11.907Z,10.50
2024-03-14T19:33:38.620Z,11.60
2024-03-14T19:36:05.383Z,11.98
2024-03-14T19:38:33.251Z,10.63
2024-03-14T19:40:59.750Z,10.25
2024-03-14T19:43:26.264Z,10.30
2024-03-14T19:45:52.898Z,10.85
2024-03-14T19:48:20.447Z,9.82
2024-03-14T19:50:47.805Z,10.18
2024-03-14T19:53:15.097Z,10.02
2024-03-14T19:55:41.651Z,10.38
2024-03-14T19:58:08.580Z,10.63
2024-03-14T20:00:35.218Z,11.93
2024-03-14T20:03:03.298Z,10.85
2024-03-14T20:05:32.957Z,10.52
2024-03-14T20:08:00.027Z,10.23
2024-03-14T20:10:27.631Z,9.70
2024-03-14T20:12:55.188Z,10.00
2024-03-14T20:15:25.751Z,10.45
2024-03-14T20:17:52.539Z,10.40
2024-03-14T20:20:19.324Z,9.90
2024-03-14T20:22:45.770Z,9.60
2024-03-14T20:25:13.507Z,10.27
2024-03-14T20:27:40.508Z,10.48
2024-03-14T20:30:13.686Z,9.52
2024-03-14T20:32:43.168Z,8.93
2024-03-14T20:35:10.145Z,8.60
2024-03-14T20:37:37.795Z,9.98
2024-03-14T20:40:05.594Z,9.68
2024-03-14T20:42:35.586Z,9.98
2024-03-14T20:45:02.299Z,9.70
2024-03-14T20:47:31.984Z,9.45
2024-03-14T20:49:58.618Z,9.60
2024-03-14T20:52:26.774Z,9.77
2024-03-14T20:55:21.312Z,10.88
2024-03-14T20:57:56.839Z,11.43
2024-03-14T21:00:42.488Z,11.45
2024-03-14T21:03:10.025Z,12.30
2024-03-14T21:05:37.550Z,13.80
2024-03-14T21:08:11.205Z,13.70
2024-03-14T21:10:39.061Z,13.32
2024-03-14T21:13:06.279Z,13.05
2024-03-14T21:15:33.055Z,12.75
2024-03-14T21:17:59.767Z,12.93
2024-03-14T21:20:28.307Z,13.10
2024-03-14T21:22:57.069Z,13.18
2024-03-14T21:25:25.669Z,12.43
2024-03-14T21:27:52.433Z,12.05
2024-03-14T21:30:20.307Z,11.73
2024-03-14T21:32:46.963Z,13.50
2024-03-14T21:35:13.822Z,13.77
2024-03-14T21:37:41.292Z,12.25
2024-03-14T21:40:09.268Z,13.00
2024-03-14T21:42:37.564Z,13.07
2024-03-14T21:45:07.704Z,13.02
2024-03-14T21:47:37.981Z,12.20
2024-03-14T21:50:05.218Z,14.20
2024-03-14T21:52:34.437Z,13.85
2024-03-14T21:55:01.775Z,13.20
2024-03-14T21:57:28.363Z,13.25
2024-03-14T21:59:54.908Z,16.37
2024-03-14T22:02:21.925Z,21.48
2024-03-14T22:04:48.453Z,17.95
2024-03-14T22:07:14.974Z,19.30
2024-03-14T22:09:42.127Z,19.80
2024-03-14T22:12:08.741Z,21.20
2024-03-14T22:14:35.275Z,16.73
2024-03-14T22:17:02.017Z,17.15
2024-03-14T22:19:28.635Z,16.87
2024-03-14T22:21:55.561Z,15.60
2024-03-14T22:24:23.342Z,15.20
2024-03-14T22:26:49.867Z,14.20
2024-03-14T22:29:16.793Z,14.05
2024-03-14T22:31:43.560Z,14.20
2024-03-14T22:34:10.151Z,15.70
2024-03-14T22:36:40.122Z,13.77
2024-03-14T22:39:11.085Z,15.82
2024-03-14T22:41:40.751Z,16.87
2024-03-14T22:44:07.319Z,15.38
2024-03-14T22:46:34.220Z,17.58
2024-03-14T22:49:03.630Z,17.60
2024-03-14T22:51:30.191Z,17.60
2024-03-14T22:53:58.177Z,16.77
2024-03-14T22:56:24.671Z,16.05
2024-03-14T22:58:51.407Z,18.65
2024-03-14T23:01:17.973Z,17.90
2024-03-14T23:03:46.068Z,17.45
2024-03-14T23:06:14.910Z,17.62
2024-03-14T23:08:41.419Z,17.73
2024-03-14T23:11:07.975Z,16.25
2024-03-14T23:13:34.581Z,16.48
2024-03-14T23:16:01.530Z,16.60
2024-03-14T23:18:28.255Z,15.40
2024-03-14T23:20:59.565Z,15.20
2024-03-14T23:23:29.308Z,14.27
2024-03-14T23:25:57.265Z,15.57
2024-03-14T23:28:25.952Z,14.18
2024-03-14T23:30:52.646Z,14.48
2024-03-14T23:33:19.337Z,13.27
2024-03-14T23:35:47.661Z,12.20
2024-03-14T23:38:14.338Z,13.45
2024-03-14T23:40:41.178Z,12.75
2024-03-14T23:43:07.791Z,12.90
2024-03-14T23:45:35.620Z,12.15
2024-03-14T23:48:02.987Z,11.90
2024-03-14T23:50:30.252Z,12.13
2024-03-14T23:52:56.968Z,13.32
2024-03-14T23:55:23.831Z,13.68
2024-03-14T23:57:50.625Z,14.57
